sensor_id;sensor_type;location;lat;lon;timestamp;P1;durP1;ratioP1;P2;durP2;ratioP2
4766;SDS011;2397;53.576;9.746;2023-01-29T00:01:50;20.80;;;11.93;;
4766;SDS011;2397;53.576;9.746;2023-01-29T00:04:17;21.70;;;11.63;;
4766;SDS011;2397;53.576;9.746;2023-01-29T00:06:44;20.30;;;11.60;;
4766;SDS011;2397;53.576;9.746;2023-01-29T00:09:10;17.17;;;11.57;;
4766;SDS011;2397;53.576;9.746;2023-01-29T00:11:38;19.80;;;12.00;;
4766;SDS011;2397;53.576;9.746;2023-01-29T00:14:04;18.43;;;11.50;;
4766;SDS011;2397;53.576;9.746;2023-01-29T00:16:32;20.07;;;12.70;;
4766;SDS011;2397;53.576;9.746;2023-01-29T00:18:59;23.30;;;11.37;;
4766;SDS011;2397;53.576;9.746;2023-01-29T00:21:27;19.87;;;12.10;;
4766;SDS011;2397;53.576;9.746;2023-01-29T00:23:56;17.40;;;11.23;;
4766;SDS011;2397;53.576;9.746;2023-01-29T00:26:23;19.00;;;11.47;;
4766;SDS011;2397;53.576;9.746;2023-01-29T00:28:50;20.40;;;12.10;;
4766;SDS011;2397;53.576;9.746;2023-01-29T00:31:21;17.70;;;11.37;;
4766;SDS011;2397;53.576;9.746;2023-01-29T00:33:49;19.93;;;11.20;;
4766;SDS011;2397;53.576;9.746;2023-01-29T00:36:17;17.77;;;11.43;;
4766;SDS011;2397;53.576;9.746;2023-01-29T00:38:44;20.40;;;13.00;;
4766;SDS011;2397;53.576;9.746;2023-01-29T00:41:20;20.73;;;12.60;;
4766;SDS011;2397;53.576;9.746;2023-01-29T00:44:05;20.37;;;11.00;;
4766;SDS011;2397;53.576;9.746;2023-01-29T00:46:51;27.87;;;12.47;;
4766;SDS011;2397;53.576;9.746;2023-01-29T00:49:17;19.60;;;12.90;;
4766;SDS011;2397;53.576;9.746;2023-01-29T00:51:43;17.13;;;12.13;;
4766;SDS011;2397;53.576;9.746;2023-01-29T00:54:30;22.73;;;13.40;;
4766;SDS011;2397;53.576;9.746;2023-01-29T00:56:58;23.73;;;12.03;;
4766;SDS011;2397;53.576;9.746;2023-01-29T00:59:24;22.80;;;12.33;;
4766;SDS011;2397;53.576;9.746;2023-01-29T01:01:51;22.77;;;12.73;;
4766;SDS011;2397;53.576;9.746;2023-01-29T01:04:36;20.57;;;10.30;;
4766;SDS011;2397;53.576;9.746;2023-01-29T01:07:02;20.30;;;11.33;;
4766;SDS011;2397;53.576;9.746;2023-01-29T01:09:28;18.13;;;11.53;;
4766;SDS011;2397;53.576;9.746;2023-01-29T01:12:13;16.73;;;10.43;;
4766;SDS011;2397;53.576;9.746;2023-01-29T01:14:40;21.63;;;12.03;;
4766;SDS011;2397;53.576;9.746;2023-01-29T01:17:08;23.40;;;11.53;;
4766;SDS011;2397;53.576;9.746;2023-01-29T01:19:34;17.27;;;10.97;;
4766;SDS011;2397;53.576;9.746;2023-01-29T01:22:01;16.70;;;10.67;;
4766;SDS011;2397;53.576;9.746;2023-01-29T01:24:30;20.93;;;12.10;;
4766;SDS011;2397;53.576;9.746;2023-01-29T01:26:57;18.93;;;10.23;;
4766;SDS011;2397;53.576;9.746;2023-01-29T01:29:23;20.93;;;11.63;;
4766;SDS011;2397;53.576;9.746;2023-01-29T01:31:51;17.47;;;10.47;;
4766;SDS011;2397;53.576;9.746;2023-01-29T01:34:18;20.53;;;10.20;;
4766;SDS011;2397;53.576;9.746;2023-01-29T01:36:45;20.60;;;11.50;;
4766;SDS011;2397;53.576;9.746;2023-01-29T01:39:12;18.97;;;10.00;;
4766;SDS011;2397;53.576;9.746;2023-01-29T01:41:38;21.30;;;11.67;;
4766;SDS011;2397;53.576;9.746;2023-01-29T01:44:05;15.93;;;10.07;;
4766;SDS011;2397;53.576;9.746;2023-01-29T01:46:35;27.17;;;10.97;;
4766;SDS011;2397;53.576;9.746;2023-01-29T01:49:09;22.13;;;11.23;;
4766;SDS011;2397;53.576;9.746;2023-01-29T01:51:45;19.60;;;10.47;;
4766;SDS011;2397;53.576;9.746;2023-01-29T01:54:17;21.40;;;11.67;;
4766;SDS011;2397;53.576;9.746;2023-01-29T01:56:51;21.60;;;11.40;;
4766;SDS011;2397;53.576;9.746;2023-01-29T01:59:37;18.40;;;10.50;;
4766;SDS011;2397;53.576;9.746;2023-01-29T02:02:06;18.50;;;10.03;;
4766;SDS011;2397;53.576;9.746;2023-01-29T02:04:51;16.47;;;10.70;;
4766;SDS011;2397;53.576;9.746;2023-01-29T02:07:40;19.50;;;10.63;;
4766;SDS011;2397;53.576;9.746;2023-01-29T02:10:27;23.80;;;12.73;;
4766;SDS011;2397;53.576;9.746;2023-01-29T02:12:57;18.17;;;10.60;;
4766;SDS011;2397;53.576;9.746;2023-01-29T02:15:24;21.10;;;11.40;;
4766;SDS011;2397;53.576;9.746;2023-01-29T02:17:51;16.40;;;10.50;;
4766;SDS011;2397;53.576;9.746;2023-01-29T02:20:20;23.53;;;10.87;;
4766;SDS011;2397;53.576;9.746;2023-01-29T02:34:12;17.70;;;11.57;;
4766;SDS011;2397;53.576;9.746;2023-01-29T02:36:51;18.40;;;10.43;;
4766;SDS011;2397;53.576;9.746;2023-01-29T02:44:38;18.70;;;10.87;;
4766;SDS011;2397;53.576;9.746;2023-01-29T02:47:16;14.63;;;10.03;;
4766;SDS011;2397;53.576;9.746;2023-01-29T02:52:28;18.17;;;10.70;;
4766;SDS011;2397;53.576;9.746;2023-01-29T02:55:05;18.77;;;10.73;;
4766;SDS011;2397;53.576;9.746;2023-01-29T02:57:36;19.40;;;10.40;;
4766;SDS011;2397;53.576;9.746;2023-01-29T03:00:09;14.90;;;10.80;;
4766;SDS011;2397;53.576;9.746;2023-01-29T03:02:46;16.90;;;10.93;;
4766;SDS011;2397;53.576;9.746;2023-01-29T03:05:20;16.10;;;11.07;;
4766;SDS011;2397;53.576;9.746;2023-01-29T03:07:55;20.50;;;11.83;;
4766;SDS011;2397;53.576;9.746;2023-01-29T03:10:40;16.73;;;10.07;;
4766;SDS011;2397;53.576;9.746;2023-01-29T03:13:14;19.60;;;10.30;;
4766;SDS011;2397;53.576;9.746;2023-01-29T03:18:54;18.27;;;10.70;;
4766;SDS011;2397;53.576;9.746;2023-01-29T03:21:28;16.77;;;10.40;;
4766;SDS011;2397;53.576;9.746;2023-01-29T03:24:24;20.50;;;12.40;;
4766;SDS011;2397;53.576;9.746;2023-01-29T03:27:10;21.90;;;10.97;;
4766;SDS011;2397;53.576;9.746;2023-01-29T03:29:59;18.73;;;11.40;;
4766;SDS011;2397;53.576;9.746;2023-01-29T03:32:45;18.23;;;11.67;;
4766;SDS011;2397;53.576;9.746;2023-01-29T03:35:17;19.00;;;12.60;;
4766;SDS011;2397;53.576;9.746;2023-01-29T03:37:58;21.00;;;12.47;;
4766;SDS011;2397;53.576;9.746;2023-01-29T03:40:26;24.90;;;12.70;;
4766;SDS011;2397;53.576;9.746;2023-01-29T03:43:04;18.40;;;11.37;;
4766;SDS011;2397;53.576;9.746;2023-01-29T03:45:43;17.47;;;11.20;;
4766;SDS011;2397;53.576;9.746;2023-01-29T04:00:00;18.60;;;11.80;;
4766;SDS011;2397;53.576;9.746;2023-01-29T04:02:41;25.27;;;13.17;;
4766;SDS011;2397;53.576;9.746;2023-01-29T04:05:21;20.20;;;12.23;;
4766;SDS011;2397;53.576;9.746;2023-01-29T04:07:53;26.53;;;12.27;;
4766;SDS011;2397;53.576;9.746;2023-01-29T04:10:27;20.20;;;11.50;;
4766;SDS011;2397;53.576;9.746;2023-01-29T04:12:59;18.90;;;11.70;;
4766;SDS011;2397;53.576;9.746;2023-01-29T04:15:29;25.43;;;13.03;;
4766;SDS011;2397;53.576;9.746;2023-01-29T04:18:01;18.00;;;11.63;;
4766;SDS011;2397;53.576;9.746;2023-01-29T04:20:28;19.20;;;11.80;;
4766;SDS011;2397;53.576;9.746;2023-01-29T04:22:55;25.50;;;13.23;;
4766;SDS011;2397;53.576;9.746;2023-01-29T04:25:22;21.43;;;13.13;;
4766;SDS011;2397;53.576;9.746;2023-01-29T04:30:53;21.00;;;12.33;;
4766;SDS011;2397;53.576;9.746;2023-01-29T04:33:31;22.27;;;12.80;;
4766;SDS011;2397;53.576;9.746;2023-01-29T04:41:54;20.57;;;12.70;;
4766;SDS011;2397;53.576;9.746;2023-01-29T04:44:46;17.43;;;11.33;;
4766;SDS011;2397;53.576;9.746;2023-01-29T04:50:45;21.97;;;12.00;;
4766;SDS011;2397;53.576;9.746;2023-01-29T04:53:34;18.60;;;10.23;;
4766;SDS011;2397;53.576;9.746;2023-01-29T04:59:00;22.17;;;11.77;;
4766;SDS011;2397;53.576;9.746;2023-01-29T05:01:31;18.10;;;11.13;;
4766;SDS011;2397;53.576;9.746;2023-01-29T05:04:01;18.60;;;11.40;;
4766;SDS011;2397;53.576;9.746;2023-01-29T05:06:29;32.03;;;11.40;;
4766;SDS011;2397;53.576;9.746;2023-01-29T05:08:57;18.57;;;11.00;;
4766;SDS011;2397;53.576;9.746;2023-01-29T05:11:25;21.07;;;12.37;;
4766;SDS011;2397;53.576;9.746;2023-01-29T05:13:52;16.53;;;10.17;;
4766;SDS011;2397;53.576;9.746;2023-01-29T05:16:20;18.43;;;10.73;;
4766;SDS011;2397;53.576;9.746;2023-01-29T05:18:51;18.83;;;11.40;;
4766;SDS011;2397;53.576;9.746;2023-01-29T05:21:18;17.10;;;11.23;;
4766;SDS011;2397;53.576;9.746;2023-01-29T05:26:36;20.67;;;12.23;;
4766;SDS011;2397;53.576;9.746;2023-01-29T05:29:21;18.40;;;11.23;;
4766;SDS011;2397;53.576;9.746;2023-01-29T05:31:48;22.00;;;12.63;;
4766;SDS011;2397;53.576;9.746;2023-01-29T05:34:14;19.00;;;11.87;;
4766;SDS011;2397;53.576;9.746;2023-01-29T05:36:40;19.57;;;12.47;;
4766;SDS011;2397;53.576;9.746;2023-01-29T05:39:07;20.20;;;12.80;;
4766;SDS011;2397;53.576;9.746;2023-01-29T05:41:33;20.63;;;11.87;;
4766;SDS011;2397;53.576;9.746;2023-01-29T05:44:00;22.83;;;13.27;;
4766;SDS011;2397;53.576;9.746;2023-01-29T05:46:26;20.23;;;12.93;;
4766;SDS011;2397;53.576;9.746;2023-01-29T05:48:53;24.77;;;12.77;;
4766;SDS011;2397;53.576;9.746;2023-01-29T05:51:19;25.83;;;12.30;;
4766;SDS011;2397;53.576;9.746;2023-01-29T05:53:46;23.50;;;13.10;;
4766;SDS011;2397;53.576;9.746;2023-01-29T05:56:12;23.10;;;12.50;;
4766;SDS011;2397;53.576;9.746;2023-01-29T05:58:39;18.77;;;12.37;;
4766;SDS011;2397;53.576;9.746;2023-01-29T06:01:09;19.73;;;12.33;;
4766;SDS011;2397;53.576;9.746;2023-01-29T06:03:40;22.20;;;11.67;;
4766;SDS011;2397;53.576;9.746;2023-01-29T06:06:06;20.17;;;12.23;;
4766;SDS011;2397;53.576;9.746;2023-01-29T06:08:33;17.10;;;11.50;;
4766;SDS011;2397;53.576;9.746;2023-01-29T06:10:59;19.07;;;11.37;;
4766;SDS011;2397;53.576;9.746;2023-01-29T06:13:26;18.50;;;11.57;;
4766;SDS011;2397;53.576;9.746;2023-01-29T06:15:52;19.80;;;12.10;;
4766;SDS011;2397;53.576;9.746;2023-01-29T06:18:19;17.70;;;11.23;;
4766;SDS011;2397;53.576;9.746;2023-01-29T06:20:45;24.23;;;12.73;;
4766;SDS011;2397;53.576;9.746;2023-01-29T06:23:12;18.83;;;12.43;;
4766;SDS011;2397;53.576;9.746;2023-01-29T06:25:38;25.43;;;13.43;;
4766;SDS011;2397;53.576;9.746;2023-01-29T06:28:04;17.63;;;11.73;;
4766;SDS011;2397;53.576;9.746;2023-01-29T06:30:31;21.87;;;12.30;;
4766;SDS011;2397;53.576;9.746;2023-01-29T06:32:58;17.17;;;11.17;;
4766;SDS011;2397;53.576;9.746;2023-01-29T06:35:26;22.33;;;11.63;;
4766;SDS011;2397;53.576;9.746;2023-01-29T06:37:53;20.67;;;12.10;;
4766;SDS011;2397;53.576;9.746;2023-01-29T06:40:21;23.03;;;12.30;;
4766;SDS011;2397;53.576;9.746;2023-01-29T06:42:47;20.30;;;12.07;;
4766;SDS011;2397;53.576;9.746;2023-01-29T06:45:13;22.03;;;12.27;;
4766;SDS011;2397;53.576;9.746;2023-01-29T06:47:40;24.07;;;11.37;;
4766;SDS011;2397;53.576;9.746;2023-01-29T06:50:07;18.67;;;12.20;;
4766;SDS011;2397;53.576;9.746;2023-01-29T06:52:33;19.70;;;11.27;;
4766;SDS011;2397;53.576;9.746;2023-01-29T06:55:00;22.07;;;12.80;;
4766;SDS011;2397;53.576;9.746;2023-01-29T06:57:27;21.43;;;12.97;;
4766;SDS011;2397;53.576;9.746;2023-01-29T06:59:54;20.63;;;12.17;;
4766;SDS011;2397;53.576;9.746;2023-01-29T07:02:20;25.30;;;13.70;;
4766;SDS011;2397;53.576;9.746;2023-01-29T07:04:47;18.57;;;11.77;;
4766;SDS011;2397;53.576;9.746;2023-01-29T07:07:13;22.80;;;12.57;;
4766;SDS011;2397;53.576;9.746;2023-01-29T07:09:40;20.17;;;13.33;;
4766;SDS011;2397;53.576;9.746;2023-01-29T07:12:07;20.10;;;12.77;;
4766;SDS011;2397;53.576;9.746;2023-01-29T07:14:35;19.87;;;12.50;;
4766;SDS011;2397;53.576;9.746;2023-01-29T07:17:01;19.97;;;12.37;;
4766;SDS011;2397;53.576;9.746;2023-01-29T07:19:28;20.23;;;12.33;;
4766;SDS011;2397;53.576;9.746;2023-01-29T07:21:54;24.20;;;13.33;;
4766;SDS011;2397;53.576;9.746;2023-01-29T07:24:21;19.67;;;12.00;;
4766;SDS011;2397;53.576;9.746;2023-01-29T07:26:47;19.03;;;12.83;;
4766;SDS011;2397;53.576;9.746;2023-01-29T07:29:14;21.20;;;12.73;;
4766;SDS011;2397;53.576;9.746;2023-01-29T07:31:40;20.10;;;12.80;;
4766;SDS011;2397;53.576;9.746;2023-01-29T07:34:07;23.97;;;13.63;;
4766;SDS011;2397;53.576;9.746;2023-01-29T07:36:33;22.30;;;13.97;;
4766;SDS011;2397;53.576;9.746;2023-01-29T07:38:59;21.37;;;13.70;;
4766;SDS011;2397;53.576;9.746;2023-01-29T07:41:26;23.17;;;14.50;;
4766;SDS011;2397;53.576;9.746;2023-01-29T07:43:52;24.30;;;13.57;;
4766;SDS011;2397;53.576;9.746;2023-01-29T07:46:19;23.80;;;13.93;;
4766;SDS011;2397;53.576;9.746;2023-01-29T07:48:45;20.13;;;13.17;;
4766;SDS011;2397;53.576;9.746;2023-01-29T07:51:11;21.30;;;13.90;;
4766;SDS011;2397;53.576;9.746;2023-01-29T07:53:38;21.53;;;14.00;;
4766;SDS011;2397;53.576;9.746;2023-01-29T07:56:04;23.10;;;14.47;;
4766;SDS011;2397;53.576;9.746;2023-01-29T07:58:31;25.83;;;15.27;;
4766;SDS011;2397;53.576;9.746;2023-01-29T08:01:03;26.67;;;15.43;;
4766;SDS011;2397;53.576;9.746;2023-01-29T08:03:30;23.33;;;13.67;;
4766;SDS011;2397;53.576;9.746;2023-01-29T08:05:57;24.53;;;14.67;;
4766;SDS011;2397;53.576;9.746;2023-01-29T08:08:23;28.23;;;14.20;;
4766;SDS011;2397;53.576;9.746;2023-01-29T08:10:50;27.30;;;16.27;;
4766;SDS011;2397;53.576;9.746;2023-01-29T08:13:17;25.17;;;15.37;;
4766;SDS011;2397;53.576;9.746;2023-01-29T08:15:43;25.83;;;16.33;;
4766;SDS011;2397;53.576;9.746;2023-01-29T08:18:11;28.40;;;17.53;;
4766;SDS011;2397;53.576;9.746;2023-01-29T08:20:38;31.90;;;18.00;;
4766;SDS011;2397;53.576;9.746;2023-01-29T08:23:06;24.63;;;15.10;;
4766;SDS011;2397;53.576;9.746;2023-01-29T08:25:38;34.77;;;19.80;;
4766;SDS011;2397;53.576;9.746;2023-01-29T08:28:04;33.73;;;19.30;;
4766;SDS011;2397;53.576;9.746;2023-01-29T08:30:31;34.80;;;20.13;;
4766;SDS011;2397;53.576;9.746;2023-01-29T08:32:59;32.77;;;18.30;;
4766;SDS011;2397;53.576;9.746;2023-01-29T08:35:26;39.13;;;21.63;;
4766;SDS011;2397;53.576;9.746;2023-01-29T08:37:56;50.10;;;28.03;;
4766;SDS011;2397;53.576;9.746;2023-01-29T08:40:25;46.20;;;28.17;;
4766;SDS011;2397;53.576;9.746;2023-01-29T08:42:56;38.57;;;22.87;;
4766;SDS011;2397;53.576;9.746;2023-01-29T08:45:28;35.03;;;19.57;;
4766;SDS011;2397;53.576;9.746;2023-01-29T08:47:55;35.80;;;20.63;;
4766;SDS011;2397;53.576;9.746;2023-01-29T08:50:21;35.83;;;21.23;;
4766;SDS011;2397;53.576;9.746;2023-01-29T08:52:47;32.73;;;21.67;;
4766;SDS011;2397;53.576;9.746;2023-01-29T08:55:14;43.13;;;24.07;;
4766;SDS011;2397;53.576;9.746;2023-01-29T08:57:41;39.70;;;22.47;;
4766;SDS011;2397;53.576;9.746;2023-01-29T09:00:07;39.73;;;23.43;;
4766;SDS011;2397;53.576;9.746;2023-01-29T09:02:36;37.57;;;21.77;;
4766;SDS011;2397;53.576;9.746;2023-01-29T09:05:03;44.10;;;23.20;;
4766;SDS011;2397;53.576;9.746;2023-01-29T09:07:30;42.70;;;23.30;;
4766;SDS011;2397;53.576;9.746;2023-01-29T09:09:57;41.47;;;22.80;;
4766;SDS011;2397;53.576;9.746;2023-01-29T09:12:24;38.67;;;22.70;;
4766;SDS011;2397;53.576;9.746;2023-01-29T09:14:50;39.07;;;22.43;;
4766;SDS011;2397;53.576;9.746;2023-01-29T09:17:17;39.47;;;22.23;;
4766;SDS011;2397;53.576;9.746;2023-01-29T09:19:43;43.80;;;24.03;;
4766;SDS011;2397;53.576;9.746;2023-01-29T09:22:10;37.33;;;23.70;;
4766;SDS011;2397;53.576;9.746;2023-01-29T09:24:37;42.60;;;23.63;;
4766;SDS011;2397;53.576;9.746;2023-01-29T09:27:03;45.03;;;23.93;;
4766;SDS011;2397;53.576;9.746;2023-01-29T09:29:31;38.50;;;24.80;;
4766;SDS011;2397;53.576;9.746;2023-01-29T09:32:01;41.43;;;23.37;;
4766;SDS011;2397;53.576;9.746;2023-01-29T09:34:28;39.50;;;22.30;;
4766;SDS011;2397;53.576;9.746;2023-01-29T09:36:54;41.17;;;25.00;;
4766;SDS011;2397;53.576;9.746;2023-01-29T09:39:21;52.07;;;25.70;;
4766;SDS011;2397;53.576;9.746;2023-01-29T09:45:05;41.30;;;23.97;;
4766;SDS011;2397;53.576;9.746;2023-01-29T09:47:38;45.47;;;25.90;;
4766;SDS011;2397;53.576;9.746;2023-01-29T09:50:11;53.27;;;24.50;;
4766;SDS011;2397;53.576;9.746;2023-01-29T09:52:47;41.10;;;24.30;;
4766;SDS011;2397;53.576;9.746;2023-01-29T09:57:53;46.60;;;24.83;;
4766;SDS011;2397;53.576;9.746;2023-01-29T10:00:28;43.40;;;23.60;;
4766;SDS011;2397;53.576;9.746;2023-01-29T10:03:06;43.57;;;25.10;;
4766;SDS011;2397;53.576;9.746;2023-01-29T10:13:59;42.73;;;24.87;;
4766;SDS011;2397;53.576;9.746;2023-01-29T10:19:39;43.00;;;25.73;;
4766;SDS011;2397;53.576;9.746;2023-01-29T10:25:20;51.37;;;27.30;;
4766;SDS011;2397;53.576;9.746;2023-01-29T10:27:49;46.33;;;25.80;;
4766;SDS011;2397;53.576;9.746;2023-01-29T10:32:50;50.90;;;27.20;;
4766;SDS011;2397;53.576;9.746;2023-01-29T10:35:27;47.80;;;25.40;;
4766;SDS011;2397;53.576;9.746;2023-01-29T10:37:57;46.53;;;24.13;;
4766;SDS011;2397;53.576;9.746;2023-01-29T10:40:38;44.57;;;25.20;;
4766;SDS011;2397;53.576;9.746;2023-01-29T10:43:15;53.33;;;28.17;;
4766;SDS011;2397;53.576;9.746;2023-01-29T10:45:53;53.47;;;29.57;;
4766;SDS011;2397;53.576;9.746;2023-01-29T10:51:21;49.77;;;27.53;;
4766;SDS011;2397;53.576;9.746;2023-01-29T11:02:44;49.77;;;29.17;;
4766;SDS011;2397;53.576;9.746;2023-01-29T11:05:31;54.73;;;28.43;;
4766;SDS011;2397;53.576;9.746;2023-01-29T11:08:14;49.70;;;28.83;;
4766;SDS011;2397;53.576;9.746;2023-01-29T11:10:51;49.43;;;27.83;;
4766;SDS011;2397;53.576;9.746;2023-01-29T11:13:28;49.13;;;27.77;;
4766;SDS011;2397;53.576;9.746;2023-01-29T11:15:59;47.33;;;26.30;;
4766;SDS011;2397;53.576;9.746;2023-01-29T11:18:26;46.23;;;26.77;;
4766;SDS011;2397;53.576;9.746;2023-01-29T11:21:12;47.00;;;26.43;;
4766;SDS011;2397;53.576;9.746;2023-01-29T11:23:39;42.17;;;26.90;;
4766;SDS011;2397;53.576;9.746;2023-01-29T11:26:06;44.50;;;26.90;;
4766;SDS011;2397;53.576;9.746;2023-01-29T11:28:40;43.70;;;26.37;;
4766;SDS011;2397;53.576;9.746;2023-01-29T11:31:18;47.40;;;26.47;;
4766;SDS011;2397;53.576;9.746;2023-01-29T11:33:52;42.50;;;25.03;;
4766;SDS011;2397;53.576;9.746;2023-01-29T11:39:13;43.20;;;25.47;;
4766;SDS011;2397;53.576;9.746;2023-01-29T11:41:45;39.07;;;24.10;;
4766;SDS011;2397;53.576;9.746;2023-01-29T11:44:26;42.97;;;24.80;;
4766;SDS011;2397;53.576;9.746;2023-01-29T11:46:52;40.80;;;24.07;;
4766;SDS011;2397;53.576;9.746;2023-01-29T11:52:18;38.30;;;23.13;;
4766;SDS011;2397;53.576;9.746;2023-01-29T11:54:57;36.07;;;22.07;;
4766;SDS011;2397;53.576;9.746;2023-01-29T11:57:28;43.83;;;24.23;;
4766;SDS011;2397;53.576;9.746;2023-01-29T12:05:27;34.77;;;21.93;;
4766;SDS011;2397;53.576;9.746;2023-01-29T12:07:55;36.43;;;22.77;;
4766;SDS011;2397;53.576;9.746;2023-01-29T12:10:38;32.87;;;20.33;;
4766;SDS011;2397;53.576;9.746;2023-01-29T12:15:36;32.63;;;21.73;;
4766;SDS011;2397;53.576;9.746;2023-01-29T12:20:50;32.97;;;20.60;;
4766;SDS011;2397;53.576;9.746;2023-01-29T12:26:09;31.87;;;21.57;;
4766;SDS011;2397;53.576;9.746;2023-01-29T12:28:42;30.77;;;19.90;;
4766;SDS011;2397;53.576;9.746;2023-01-29T12:31:28;35.00;;;22.67;;
4766;SDS011;2397;53.576;9.746;2023-01-29T12:36:48;32.57;;;20.13;;
4766;SDS011;2397;53.576;9.746;2023-01-29T12:39:18;33.93;;;21.30;;
4766;SDS011;2397;53.576;9.746;2023-01-29T12:41:48;34.43;;;21.03;;
4766;SDS011;2397;53.576;9.746;2023-01-29T12:44:20;34.53;;;21.27;;
4766;SDS011;2397;53.576;9.746;2023-01-29T12:46:55;31.50;;;21.90;;
4766;SDS011;2397;53.576;9.746;2023-01-29T12:49:29;34.60;;;22.30;;
4766;SDS011;2397;53.576;9.746;2023-01-29T12:52:01;36.70;;;21.63;;
4766;SDS011;2397;53.576;9.746;2023-01-29T12:54:38;33.43;;;22.40;;
4766;SDS011;2397;53.576;9.746;2023-01-29T12:57:19;30.93;;;21.00;;
4766;SDS011;2397;53.576;9.746;2023-01-29T12:59:55;36.63;;;21.80;;
4766;SDS011;2397;53.576;9.746;2023-01-29T13:02:31;32.23;;;21.60;;
4766;SDS011;2397;53.576;9.746;2023-01-29T13:08:20;34.77;;;21.17;;
4766;SDS011;2397;53.576;9.746;2023-01-29T13:10:55;32.93;;;21.70;;
4766;SDS011;2397;53.576;9.746;2023-01-29T13:13:30;32.40;;;21.60;;
4766;SDS011;2397;53.576;9.746;2023-01-29T13:16:10;29.53;;;19.47;;
4766;SDS011;2397;53.576;9.746;2023-01-29T13:21:21;36.90;;;21.97;;
4766;SDS011;2397;53.576;9.746;2023-01-29T13:23:51;32.53;;;20.10;;
4766;SDS011;2397;53.576;9.746;2023-01-29T13:26:21;34.27;;;22.60;;
4766;SDS011;2397;53.576;9.746;2023-01-29T13:28:48;37.27;;;20.93;;
4766;SDS011;2397;53.576;9.746;2023-01-29T13:31:24;33.67;;;21.90;;
4766;SDS011;2397;53.576;9.746;2023-01-29T13:36:29;41.40;;;20.83;;
4766;SDS011;2397;53.576;9.746;2023-01-29T13:39:01;33.33;;;20.90;;
4766;SDS011;2397;53.576;9.746;2023-01-29T13:41:31;31.93;;;21.10;;
4766;SDS011;2397;53.576;9.746;2023-01-29T13:43:59;34.53;;;21.17;;
4766;SDS011;2397;53.576;9.746;2023-01-29T13:46:26;32.47;;;21.53;;
4766;SDS011;2397;53.576;9.746;2023-01-29T13:48:53;34.30;;;21.23;;
4766;SDS011;2397;53.576;9.746;2023-01-29T13:51:24;34.37;;;20.90;;
4766;SDS011;2397;53.576;9.746;2023-01-29T13:53:59;35.10;;;23.33;;
4766;SDS011;2397;53.576;9.746;2023-01-29T14:06:45;39.20;;;23.97;;
4766;SDS011;2397;53.576;9.746;2023-01-29T14:17:14;39.07;;;23.60;;
4766;SDS011;2397;53.576;9.746;2023-01-29T14:19:46;35.37;;;21.40;;
4766;SDS011;2397;53.576;9.746;2023-01-29T14:22:19;36.50;;;22.30;;
4766;SDS011;2397;53.576;9.746;2023-01-29T14:24:48;35.63;;;22.57;;
4766;SDS011;2397;53.576;9.746;2023-01-29T14:27:21;36.07;;;22.23;;
4766;SDS011;2397;53.576;9.746;2023-01-29T14:29:50;31.60;;;21.63;;
4766;SDS011;2397;53.576;9.746;2023-01-29T14:32:24;36.10;;;22.70;;
4766;SDS011;2397;53.576;9.746;2023-01-29T14:37:32;37.50;;;21.33;;
4766;SDS011;2397;53.576;9.746;2023-01-29T14:45:30;35.30;;;21.67;;
4766;SDS011;2397;53.576;9.746;2023-01-29T14:48:34;38.37;;;22.10;;
4766;SDS011;2397;53.576;9.746;2023-01-29T14:51:09;34.77;;;21.60;;
4766;SDS011;2397;53.576;9.746;2023-01-29T14:53:58;42.07;;;24.57;;
4766;SDS011;2397;53.576;9.746;2023-01-29T14:56:31;40.47;;;23.87;;
4766;SDS011;2397;53.576;9.746;2023-01-29T14:59:10;38.23;;;23.07;;
4766;SDS011;2397;53.576;9.746;2023-01-29T15:01:50;34.33;;;22.20;;
4766;SDS011;2397;53.576;9.746;2023-01-29T15:04:26;46.97;;;25.27;;
4766;SDS011;2397;53.576;9.746;2023-01-29T15:07:00;37.60;;;23.83;;
4766;SDS011;2397;53.576;9.746;2023-01-29T15:12:12;38.47;;;21.87;;
4766;SDS011;2397;53.576;9.746;2023-01-29T15:14:51;36.63;;;23.77;;
4766;SDS011;2397;53.576;9.746;2023-01-29T15:17:27;42.77;;;25.20;;
4766;SDS011;2397;53.576;9.746;2023-01-29T15:19:58;40.77;;;23.03;;
4766;SDS011;2397;53.576;9.746;2023-01-29T15:22:24;40.10;;;24.93;;
4766;SDS011;2397;53.576;9.746;2023-01-29T15:25:01;45.27;;;24.83;;
4766;SDS011;2397;53.576;9.746;2023-01-29T15:27:33;37.80;;;24.03;;
4766;SDS011;2397;53.576;9.746;2023-01-29T15:30:00;40.17;;;26.10;;
4766;SDS011;2397;53.576;9.746;2023-01-29T15:32:35;44.63;;;26.50;;
4766;SDS011;2397;53.576;9.746;2023-01-29T15:35:08;38.43;;;23.67;;
4766;SDS011;2397;53.576;9.746;2023-01-29T15:37:43;36.30;;;24.30;;
4766;SDS011;2397;53.576;9.746;2023-01-29T15:40:30;36.30;;;22.97;;
4766;SDS011;2397;53.576;9.746;2023-01-29T15:42:57;39.13;;;24.17;;
4766;SDS011;2397;53.576;9.746;2023-01-29T15:45:31;38.03;;;23.80;;
4766;SDS011;2397;53.576;9.746;2023-01-29T15:48:05;36.53;;;20.83;;
4766;SDS011;2397;53.576;9.746;2023-01-29T15:50:39;41.00;;;25.80;;
4766;SDS011;2397;53.576;9.746;2023-01-29T15:53:08;41.57;;;25.40;;
4766;SDS011;2397;53.576;9.746;2023-01-29T15:55:42;36.50;;;23.27;;
4766;SDS011;2397;53.576;9.746;2023-01-29T15:58:17;37.93;;;24.17;;
4766;SDS011;2397;53.576;9.746;2023-01-29T16:00:52;44.43;;;28.30;;
4766;SDS011;2397;53.576;9.746;2023-01-29T16:03:21;39.80;;;24.90;;
4766;SDS011;2397;53.576;9.746;2023-01-29T16:05:50;40.63;;;24.80;;
4766;SDS011;2397;53.576;9.746;2023-01-29T16:08:18;41.30;;;26.63;;
4766;SDS011;2397;53.576;9.746;2023-01-29T16:10:47;44.23;;;25.73;;
4766;SDS011;2397;53.576;9.746;2023-01-29T16:13:19;36.57;;;22.40;;
4766;SDS011;2397;53.576;9.746;2023-01-29T16:15:58;46.33;;;27.10;;
4766;SDS011;2397;53.576;9.746;2023-01-29T16:18:30;48.60;;;25.90;;
4766;SDS011;2397;53.576;9.746;2023-01-29T16:21:04;43.30;;;27.37;;
4766;SDS011;2397;53.576;9.746;2023-01-29T16:23:41;49.77;;;28.80;;
4766;SDS011;2397;53.576;9.746;2023-01-29T16:26:13;41.73;;;25.73;;
4766;SDS011;2397;53.576;9.746;2023-01-29T16:28:42;37.30;;;24.57;;
4766;SDS011;2397;53.576;9.746;2023-01-29T16:31:10;47.13;;;27.33;;
4766;SDS011;2397;53.576;9.746;2023-01-29T16:33:39;42.30;;;26.27;;
4766;SDS011;2397;53.576;9.746;2023-01-29T16:36:18;47.13;;;27.70;;
4766;SDS011;2397;53.576;9.746;2023-01-29T16:38:50;36.80;;;23.33;;
4766;SDS011;2397;53.576;9.746;2023-01-29T16:43:47;44.57;;;23.97;;
4766;SDS011;2397;53.576;9.746;2023-01-29T16:46:17;40.67;;;25.60;;
4766;SDS011;2397;53.576;9.746;2023-01-29T16:48:49;42.70;;;25.17;;
4766;SDS011;2397;53.576;9.746;2023-01-29T16:51:23;40.37;;;24.43;;
4766;SDS011;2397;53.576;9.746;2023-01-29T16:53:57;50.27;;;26.77;;
4766;SDS011;2397;53.576;9.746;2023-01-29T16:56:26;48.57;;;26.00;;
4766;SDS011;2397;53.576;9.746;2023-01-29T16:58:55;40.80;;;25.10;;
4766;SDS011;2397;53.576;9.746;2023-01-29T17:01:23;43.23;;;25.10;;
4766;SDS011;2397;53.576;9.746;2023-01-29T17:03:58;41.90;;;25.37;;
4766;SDS011;2397;53.576;9.746;2023-01-29T17:06:52;38.93;;;24.47;;
4766;SDS011;2397;53.576;9.746;2023-01-29T17:09:32;33.80;;;24.10;;
4766;SDS011;2397;53.576;9.746;2023-01-29T17:12:13;35.37;;;22.00;;
4766;SDS011;2397;53.576;9.746;2023-01-29T17:14:52;36.60;;;23.03;;
4766;SDS011;2397;53.576;9.746;2023-01-29T17:17:20;39.20;;;22.13;;
4766;SDS011;2397;53.576;9.746;2023-01-29T17:19:53;35.13;;;22.53;;
4766;SDS011;2397;53.576;9.746;2023-01-29T17:22:19;38.43;;;23.83;;
4766;SDS011;2397;53.576;9.746;2023-01-29T17:24:46;39.27;;;22.97;;
4766;SDS011;2397;53.576;9.746;2023-01-29T17:27:20;37.50;;;23.10;;
4766;SDS011;2397;53.576;9.746;2023-01-29T17:29:47;41.23;;;24.63;;
4766;SDS011;2397;53.576;9.746;2023-01-29T17:32:14;42.20;;;26.33;;
4766;SDS011;2397;53.576;9.746;2023-01-29T17:34:44;43.10;;;25.67;;
4766;SDS011;2397;53.576;9.746;2023-01-29T17:37:12;43.50;;;25.60;;
4766;SDS011;2397;53.576;9.746;2023-01-29T17:39:40;39.40;;;24.73;;
4766;SDS011;2397;53.576;9.746;2023-01-29T17:42:12;47.10;;;26.87;;